Uybat, Russia
Current Conditions -  °F | °C
As of 11:00 PM on Saturday 20 Dec 2014 (Local Time) from UNAA Reporting Station
Haze Haze  
Wind Chill:   Ceiling: 10000
Heat Index:   Visibility: 0.93mi
Dew Point:   Wind: 2mph
Humidity: 92%   Direction: NA
Pressure: 30.45"   Gusts: NA
Location:  53.73°N, 90.37°E
Report Text: UNAA 201600Z VRB01MPS 1500 BR FEW002 BKN100 M16/M17 Q1031 NOSIGRMK QBB080 QFE750 52190055
Loading
Personal Weather Stations






























Interactive Weather Map New forecast layout! Learn more

10-Day Weather Forecast

Advertisements
Track Severe Weather on mobile